sensor_id;sensor_type;location;lat;lon;timestamp;P1;durP1;ratioP1;P2;durP2;ratioP2
14300;SDS011;7234;59.306;18.024;2022-10-16T15:29:25;1.30;;;0.85;;
14300;SDS011;7234;59.306;18.024;2022-10-16T15:31:52;1.67;;;0.93;;
14300;SDS011;7234;59.306;18.024;2022-10-16T15:34:19;3.38;;;0.90;;
14300;SDS011;7234;59.306;18.024;2022-10-16T15:36:46;3.22;;;0.90;;
14300;SDS011;7234;59.306;18.024;2022-10-16T15:39:14;1.60;;;0.85;;
14300;SDS011;7234;59.306;18.024;2022-10-16T15:41:43;2.03;;;1.20;;
14300;SDS011;7234;59.306;18.024;2022-10-16T15:44:15;1.45;;;1.15;;
14300;SDS011;7234;59.306;18.024;2022-10-16T15:46:44;4.47;;;1.75;;
14300;SDS011;7234;59.306;18.024;2022-10-16T15:49:12;2.95;;;1.20;;
14300;SDS011;7234;59.306;18.024;2022-10-16T15:51:40;2.65;;;1.27;;
14300;SDS011;7234;59.306;18.024;2022-10-16T15:54:08;2.97;;;1.13;;
14300;SDS011;7234;59.306;18.024;2022-10-16T15:56:35;3.65;;;1.30;;
14300;SDS011;7234;59.306;18.024;2022-10-16T15:59:03;2.63;;;1.30;;
14300;SDS011;7234;59.306;18.024;2022-10-16T16:01:31;2.55;;;1.08;;
14300;SDS011;7234;59.306;18.024;2022-10-16T16:04:00;3.50;;;1.23;;
14300;SDS011;7234;59.306;18.024;2022-10-16T16:06:29;2.60;;;1.20;;
14300;SDS011;7234;59.306;18.024;2022-10-16T16:08:57;2.28;;;1.33;;
14300;SDS011;7234;59.306;18.024;2022-10-16T16:11:27;3.45;;;1.40;;
14300;SDS011;7234;59.306;18.024;2022-10-16T16:13:56;4.28;;;1.20;;
14300;SDS011;7234;59.306;18.024;2022-10-16T16:16:26;2.45;;;1.23;;
14300;SDS011;7234;59.306;18.024;2022-10-16T16:18:53;3.75;;;1.20;;
14300;SDS011;7234;59.306;18.024;2022-10-16T16:21:22;1.83;;;1.20;;
14300;SDS011;7234;59.306;18.024;2022-10-16T16:23:49;2.92;;;1.77;;
14300;SDS011;7234;59.306;18.024;2022-10-16T16:26:22;2.63;;;1.30;;
14300;SDS011;7234;59.306;18.024;2022-10-16T16:28:51;4.35;;;1.63;;
14300;SDS011;7234;59.306;18.024;2022-10-16T16:31:18;2.38;;;0.90;;
14300;SDS011;7234;59.306;18.024;2022-10-16T16:33:46;2.25;;;1.13;;
14300;SDS011;7234;59.306;18.024;2022-10-16T16:36:16;3.20;;;1.17;;
14300;SDS011;7234;59.306;18.024;2022-10-16T16:38:46;2.50;;;1.10;;
14300;SDS011;7234;59.306;18.024;2022-10-16T16:41:13;1.23;;;0.85;;
14300;SDS011;7234;59.306;18.024;2022-10-16T16:43:41;1.92;;;0.93;;
14300;SDS011;7234;59.306;18.024;2022-10-16T16:46:09;1.63;;;1.20;;
14300;SDS011;7234;59.306;18.024;2022-10-16T16:48:36;3.60;;;0.93;;
14300;SDS011;7234;59.306;18.024;2022-10-16T16:51:04;2.80;;;0.88;;
14300;SDS011;7234;59.306;18.024;2022-10-16T16:53:33;4.82;;;1.17;;
14300;SDS011;7234;59.306;18.024;2022-10-16T16:56:02;1.65;;;0.93;;
14300;SDS011;7234;59.306;18.024;2022-10-16T16:58:30;3.03;;;0.93;;
14300;SDS011;7234;59.306;18.024;2022-10-16T17:00:58;1.58;;;0.70;;
14300;SDS011;7234;59.306;18.024;2022-10-16T17:03:26;1.67;;;0.90;;
14300;SDS011;7234;59.306;18.024;2022-10-16T17:05:57;3.25;;;0.90;;
14300;SDS011;7234;59.306;18.024;2022-10-16T17:08:25;2.53;;;0.70;;
14300;SDS011;7234;59.306;18.024;2022-10-16T17:10:52;3.30;;;0.90;;
14300;SDS011;7234;59.306;18.024;2022-10-16T17:13:21;2.03;;;0.80;;
14300;SDS011;7234;59.306;18.024;2022-10-16T17:15:49;2.77;;;0.90;;
14300;SDS011;7234;59.306;18.024;2022-10-16T17:18:17;3.95;;;0.60;;
14300;SDS011;7234;59.306;18.024;2022-10-16T17:20:45;1.50;;;0.67;;
14300;SDS011;7234;59.306;18.024;2022-10-16T17:23:12;0.73;;;0.70;;
14300;SDS011;7234;59.306;18.024;2022-10-16T17:25:40;1.20;;;0.70;;
14300;SDS011;7234;59.306;18.024;2022-10-16T17:28:08;0.57;;;0.57;;
14300;SDS011;7234;59.306;18.024;2022-10-16T17:30:38;1.60;;;0.80;;
14300;SDS011;7234;59.306;18.024;2022-10-16T17:33:06;2.83;;;0.98;;
14300;SDS011;7234;59.306;18.024;2022-10-16T17:35:36;1.47;;;0.80;;
14300;SDS011;7234;59.306;18.024;2022-10-16T17:38:03;1.07;;;0.60;;
14300;SDS011;7234;59.306;18.024;2022-10-16T17:40:32;2.67;;;0.85;;
14300;SDS011;7234;59.306;18.024;2022-10-16T17:42:59;0.80;;;0.60;;
14300;SDS011;7234;59.306;18.024;2022-10-16T17:45:26;3.25;;;0.80;;
14300;SDS011;7234;59.306;18.024;2022-10-16T17:47:55;1.03;;;0.80;;
14300;SDS011;7234;59.306;18.024;2022-10-16T17:50:26;3.37;;;0.90;;
14300;SDS011;7234;59.306;18.024;2022-10-16T17:52:53;3.00;;;0.77;;
14300;SDS011;7234;59.306;18.024;2022-10-16T17:55:21;3.08;;;0.95;;
14300;SDS011;7234;59.306;18.024;2022-10-16T17:57:48;2.83;;;0.83;;
14300;SDS011;7234;59.306;18.024;2022-10-16T18:00:17;1.98;;;0.80;;
14300;SDS011;7234;59.306;18.024;2022-10-16T18:02:47;2.20;;;0.80;;
14300;SDS011;7234;59.306;18.024;2022-10-16T18:05:16;1.00;;;0.90;;
14300;SDS011;7234;59.306;18.024;2022-10-16T18:07:46;2.17;;;0.97;;
14300;SDS011;7234;59.306;18.024;2022-10-16T18:10:13;2.83;;;0.77;;
14300;SDS011;7234;59.306;18.024;2022-10-16T18:12:40;1.03;;;0.80;;
14300;SDS011;7234;59.306;18.024;2022-10-16T18:15:07;3.27;;;1.03;;
14300;SDS011;7234;59.306;18.024;2022-10-16T18:17:35;2.30;;;1.07;;
14300;SDS011;7234;59.306;18.024;2022-10-16T18:20:03;2.30;;;1.00;;
14300;SDS011;7234;59.306;18.024;2022-10-16T18:22:33;3.93;;;1.07;;
14300;SDS011;7234;59.306;18.024;2022-10-16T18:25:01;1.37;;;0.90;;
14300;SDS011;7234;59.306;18.024;2022-10-16T18:27:29;2.53;;;0.97;;
14300;SDS011;7234;59.306;18.024;2022-10-16T18:29:58;2.50;;;1.07;;
14300;SDS011;7234;59.306;18.024;2022-10-16T18:32:26;3.30;;;1.20;;
14300;SDS011;7234;59.306;18.024;2022-10-16T18:34:54;4.87;;;1.10;;
14300;SDS011;7234;59.306;18.024;2022-10-16T18:37:21;2.07;;;0.90;;
14300;SDS011;7234;59.306;18.024;2022-10-16T18:39:50;4.17;;;1.10;;
14300;SDS011;7234;59.306;18.024;2022-10-16T18:42:17;3.70;;;0.93;;
14300;SDS011;7234;59.306;18.024;2022-10-16T18:44:44;2.67;;;0.87;;
14300;SDS011;7234;59.306;18.024;2022-10-16T18:47:11;1.57;;;1.00;;
14300;SDS011;7234;59.306;18.024;2022-10-16T18:49:39;4.03;;;0.90;;
14300;SDS011;7234;59.306;18.024;2022-10-16T18:52:08;2.67;;;1.10;;
14300;SDS011;7234;59.306;18.024;2022-10-16T18:54:35;5.57;;;1.03;;
14300;SDS011;7234;59.306;18.024;2022-10-16T18:57:04;2.90;;;0.87;;
14300;SDS011;7234;59.306;18.024;2022-10-16T18:59:31;2.90;;;0.90;;
14300;SDS011;7234;59.306;18.024;2022-10-16T19:01:58;4.63;;;0.90;;
14300;SDS011;7234;59.306;18.024;2022-10-16T19:04:25;2.20;;;0.93;;
14300;SDS011;7234;59.306;18.024;2022-10-16T19:06:52;2.80;;;1.23;;
14300;SDS011;7234;59.306;18.024;2022-10-16T19:09:21;3.60;;;1.00;;
14300;SDS011;7234;59.306;18.024;2022-10-16T19:11:49;6.50;;;1.30;;
14300;SDS011;7234;59.306;18.024;2022-10-16T19:14:19;4.00;;;1.20;;
14300;SDS011;7234;59.306;18.024;2022-10-16T19:16:46;5.23;;;1.20;;
14300;SDS011;7234;59.306;18.024;2022-10-16T19:19:14;2.63;;;1.20;;
14300;SDS011;7234;59.306;18.024;2022-10-16T19:21:44;3.07;;;1.03;;
14300;SDS011;7234;59.306;18.024;2022-10-16T19:24:15;6.23;;;1.57;;
14300;SDS011;7234;59.306;18.024;2022-10-16T19:26:43;4.30;;;1.20;;
14300;SDS011;7234;59.306;18.024;2022-10-16T19:29:10;6.47;;;1.77;;
14300;SDS011;7234;59.306;18.024;2022-10-16T19:31:39;2.60;;;1.10;;
14300;SDS011;7234;59.306;18.024;2022-10-16T19:34:07;4.70;;;1.40;;
14300;SDS011;7234;59.306;18.024;2022-10-16T19:36:36;7.63;;;1.27;;
14300;SDS011;7234;59.306;18.024;2022-10-16T19:39:06;7.07;;;1.40;;
14300;SDS011;7234;59.306;18.024;2022-10-16T19:41:35;6.97;;;1.33;;
14300;SDS011;7234;59.306;18.024;2022-10-16T19:44:04;6.13;;;1.60;;
14300;SDS011;7234;59.306;18.024;2022-10-16T19:46:32;8.47;;;1.30;;
14300;SDS011;7234;59.306;18.024;2022-10-16T19:49:08;5.77;;;1.40;;
14300;SDS011;7234;59.306;18.024;2022-10-16T19:51:41;5.83;;;1.03;;
14300;SDS011;7234;59.306;18.024;2022-10-16T19:54:10;7.53;;;1.50;;
14300;SDS011;7234;59.306;18.024;2022-10-16T19:56:39;5.53;;;1.37;;
14300;SDS011;7234;59.306;18.024;2022-10-16T19:59:08;4.27;;;1.33;;
14300;SDS011;7234;59.306;18.024;2022-10-16T20:01:40;7.20;;;1.60;;
14300;SDS011;7234;59.306;18.024;2022-10-16T20:04:09;4.47;;;1.10;;
14300;SDS011;7234;59.306;18.024;2022-10-16T20:06:37;4.97;;;1.47;;
14300;SDS011;7234;59.306;18.024;2022-10-16T20:09:04;5.57;;;1.30;;
14300;SDS011;7234;59.306;18.024;2022-10-16T20:11:32;7.20;;;2.00;;
14300;SDS011;7234;59.306;18.024;2022-10-16T20:14:01;5.67;;;1.67;;
14300;SDS011;7234;59.306;18.024;2022-10-16T20:16:29;9.50;;;1.43;;
14300;SDS011;7234;59.306;18.024;2022-10-16T20:18:57;5.23;;;1.40;;
14300;SDS011;7234;59.306;18.024;2022-10-16T20:21:27;7.00;;;1.90;;
14300;SDS011;7234;59.306;18.024;2022-10-16T20:23:55;7.57;;;1.40;;
14300;SDS011;7234;59.306;18.024;2022-10-16T20:26:25;4.93;;;1.40;;
14300;SDS011;7234;59.306;18.024;2022-10-16T20:28:52;4.00;;;1.30;;
14300;SDS011;7234;59.306;18.024;2022-10-16T20:31:21;8.37;;;1.60;;
14300;SDS011;7234;59.306;18.024;2022-10-16T20:33:53;6.23;;;1.40;;
14300;SDS011;7234;59.306;18.024;2022-10-16T20:36:23;3.60;;;1.40;;
14300;SDS011;7234;59.306;18.024;2022-10-16T20:38:52;4.87;;;1.53;;
14300;SDS011;7234;59.306;18.024;2022-10-16T20:41:20;6.20;;;1.30;;
14300;SDS011;7234;59.306;18.024;2022-10-16T20:43:48;4.27;;;1.20;;
14300;SDS011;7234;59.306;18.024;2022-10-16T20:46:17;6.73;;;1.80;;
14300;SDS011;7234;59.306;18.024;2022-10-16T20:48:47;9.90;;;1.60;;
14300;SDS011;7234;59.306;18.024;2022-10-16T20:51:17;7.40;;;1.57;;
14300;SDS011;7234;59.306;18.024;2022-10-16T20:53:50;5.57;;;1.67;;
14300;SDS011;7234;59.306;18.024;2022-10-16T20:56:21;8.07;;;1.53;;
14300;SDS011;7234;59.306;18.024;2022-10-16T20:58:48;8.97;;;1.83;;
14300;SDS011;7234;59.306;18.024;2022-10-16T21:01:17;3.30;;;1.33;;
14300;SDS011;7234;59.306;18.024;2022-10-16T21:03:50;5.57;;;1.47;;
14300;SDS011;7234;59.306;18.024;2022-10-16T21:06:19;6.03;;;1.50;;
14300;SDS011;7234;59.306;18.024;2022-10-16T21:08:47;5.00;;;1.20;;
14300;SDS011;7234;59.306;18.024;2022-10-16T21:11:17;4.33;;;1.40;;
14300;SDS011;7234;59.306;18.024;2022-10-16T21:13:50;2.10;;;1.17;;
